Egegik Airport Egegik US
ICAO: PAII
IATA:
Category: Medium
Scheduled Services:

Elevation: 92 ft
TransAlt. 18000 ft.

Airport Communications:
ANCHORAGE CNTR:124.8
AWOS 3:135.65
CTAF:122.8

PAII Zoom In..

Runways:

(A) RW 03 length 1500 ft width 75 ft
---- / hdg 32

(B) RW 12 length 5600 ft width 100 ft
---- / hdg 122

(C) RW 21 length 1500 ft width 75 ft
---- / hdg 212

(D) RW 30 length 5600 ft width 100 ft
---- / hdg 302

Location; PAII
Day. 21 / Time. 05.56 Zulu
* Altimeter: 30.24
* Temperature: 14° c. 57.2°f.
* Wind from: 130° Speed 15 kn with Gusts up to 22 kn.
Dewpoint: 12° c.
Visibility: 10 Statute Miles.
Clouds: Few 12000 ft.

PAII 210556Z AUTO 13015G22KT 10SM FEW120 14/12 A3024 RMK AO2 SLP243 60000 T01390122 10167 20139 53002


Wind From 130°
Speed 15 kn.

 
 
jpsmedia.com for Web Design worldairports.se 2018   terms of use